Time;durP1;ratioP1;P1;durP2;ratioP2;P2;SDS_P1;SDS_P2;PMS_P1;PMS_P2;Temp;Humidity;BMP_temperature;BMP_pressure;BME280_temperature;BME280_humidity;BME280_pressure;Samples;Min_cycle;Max_cycle;Signal;HPM_P1;HPM_P2
2023/09/06 00:01:08;;;;;;;76.70;73.83;;;17.20;96.20;;;;;;5011148;28;20485;-64
2023/09/06 00:03:37;;;;;;;76.53;73.17;;;17.10;96.30;;;;;;5010910;28;20460;-63
2023/09/06 00:06:04;;;;;;;82.37;79.27;;;17.10;97.10;;;;;;5000454;28;20493;-63
2023/09/06 00:08:34;;;;;;;100.73;97.10;;;17.10;97.30;;;;;;4991853;28;20540;-63
2023/09/06 00:11:04;;;;;;;133.07;128.43;;;17.00;97.90;;;;;;4999489;28;20845;-64
2023/09/06 00:13:32;;;;;;;135.23;130.53;;;17.00;99.90;;;;;;4991482;28;20543;-64
2023/09/06 00:15:59;;;;;;;134.60;130.00;;;17.00;99.90;;;;;;4979522;28;20552;-64
2023/09/06 00:18:27;;;;;;;137.73;132.80;;;16.90;99.70;;;;;;4991176;28;20456;-63
2023/09/06 00:20:57;;;;;;;135.90;130.83;;;16.90;99.90;;;;;;5005649;28;20476;-63
2023/09/06 00:23:25;;;;;;;147.63;142.43;;;16.80;99.90;;;;;;5011154;28;20455;-63
2023/09/06 00:25:54;;;;;;;141.63;136.27;;;16.80;99.90;;;;;;5000086;28;20453;-63
2023/09/06 00:28:23;;;;;;;136.77;131.97;;;16.80;99.90;;;;;;4991569;28;20863;-63
2023/09/06 00:30:51;;;;;;;134.70;130.13;;;16.70;99.90;;;;;;4991264;28;20510;-63
2023/09/06 00:33:18;;;;;;;109.63;105.60;;;16.80;99.90;;;;;;4991410;28;20836;-63
2023/09/06 00:35:47;;;;;;;115.83;111.83;;;16.80;98.90;;;;;;4991459;28;20495;-64
2023/09/06 00:38:15;;;;;;;98.87;95.33;;;16.90;98.60;;;;;;4991492;28;20453;-63
2023/09/06 00:40:42;;;;;;;89.73;86.40;;;16.90;97.20;;;;;;4995309;28;20988;-63
2023/09/06 00:43:09;;;;;;;76.63;73.70;;;16.90;97.20;;;;;;4999522;28;20543;-64
2023/09/06 00:45:44;;;;;;;68.20;65.57;;;16.80;97.20;;;;;;5014096;28;20544;-64
2023/09/06 00:48:13;;;;;;;82.17;78.97;;;16.70;97.10;;;;;;5014885;28;20505;-63
2023/09/06 00:50:43;;;;;;;104.10;99.97;;;16.50;99.90;;;;;;5012933;28;20545;-63
2023/09/06 00:53:10;;;;;;;129.50;124.83;;;16.30;99.90;;;;;;5014419;28;20535;-63
2023/09/06 00:55:38;;;;;;;161.87;156.17;;;16.20;99.90;;;;;;5013771;28;20716;-63
2023/09/06 00:58:06;;;;;;;186.60;179.97;;;16.10;99.90;;;;;;5014563;28;20854;-63
2023/09/06 01:00:33;;;;;;;202.80;195.60;;;15.90;99.90;;;;;;5014024;28;20513;-63
2023/09/06 01:03:00;;;;;;;211.67;204.17;;;15.90;99.90;;;;;;5001461;28;20949;-63
2023/09/06 01:05:32;;;;;;;232.30;223.90;;;15.80;99.90;;;;;;4995554;28;20826;-63
2023/09/06 01:08:04;;;;;;;239.30;229.93;;;15.80;99.90;;;;;;4983023;28;20463;-63
2023/09/06 01:10:31;;;;;;;299.83;287.87;;;15.70;99.90;;;;;;4995670;28;20787;-64
2023/09/06 01:12:59;;;;;;;292.43;281.03;;;15.70;99.90;;;;;;5005429;28;20457;-63
2023/09/06 01:15:26;;;;;;;285.80;274.70;;;15.70;99.90;;;;;;4994331;28;20461;-64
2023/09/06 01:17:55;;;;;;;250.03;240.83;;;15.80;99.90;;;;;;4994604;28;20535;-63
2023/09/06 01:20:29;;;;;;;265.80;256.20;;;15.70;99.90;;;;;;4994622;28;20567;-65
2023/09/06 01:23:07;;;;;;;260.13;249.97;;;15.70;99.90;;;;;;4994292;28;20452;-64
2023/09/06 01:25:35;;;;;;;277.93;266.87;;;15.60;99.90;;;;;;4994431;28;20501;-63
2023/09/06 01:28:02;;;;;;;326.03;312.53;;;15.50;99.90;;;;;;4994544;28;20458;-63
2023/09/06 01:30:30;;;;;;;381.23;365.17;;;15.50;99.90;;;;;;4994473;28;20483;-64
2023/09/06 01:32:57;;;;;;;348.90;334.13;;;15.60;99.90;;;;;;4994174;28;20452;-63
2023/09/06 01:35:23;;;;;;;333.70;319.93;;;15.60;99.90;;;;;;4994229;28;20537;-64
2023/09/06 01:37:50;;;;;;;327.97;314.10;;;15.70;99.90;;;;;;4994530;28;20542;-63
2023/09/06 01:40:18;;;;;;;324.57;310.73;;;15.70;99.90;;;;;;4994274;28;20491;-63
2023/09/06 01:42:46;;;;;;;302.77;290.13;;;15.70;99.90;;;;;;4993919;28;20534;-64
2023/09/06 01:45:17;;;;;;;277.93;266.63;;;15.60;99.90;;;;;;4994112;28;20550;-63
2023/09/06 01:47:44;;;;;;;290.30;278.83;;;15.50;99.90;;;;;;4994169;28;20542;-63
2023/09/06 01:50:11;;;;;;;321.53;308.37;;;15.40;99.90;;;;;;4993616;28;20998;-63
2023/09/06 01:52:40;;;;;;;332.73;318.73;;;15.40;99.90;;;;;;5009917;28;20538;-63
2023/09/06 01:55:09;;;;;;;336.77;322.57;;;15.30;99.90;;;;;;4993751;28;20452;-64
2023/09/06 01:57:36;;;;;;;359.93;344.40;;;15.30;99.90;;;;;;4993744;28;20881;-63
2023/09/06 02:00:19;;;;;;;408.23;389.63;;;15.10;99.90;;;;;;5001631;28;20969;-63
2023/09/06 02:02:46;;;;;;;417.47;397.33;;;15.10;99.90;;;;;;5012900;28;20779;-63
2023/09/06 02:05:13;;;;;;;418.83;399.10;;;15.00;99.90;;;;;;5011846;28;20453;-64
2023/09/06 02:07:40;;;;;;;459.93;436.53;;;15.00;99.90;;;;;;4997651;28;20452;-63
2023/09/06 02:10:08;;;;;;;464.33;440.70;;;15.00;99.90;;;;;;5012498;28;20449;-63
2023/09/06 02:12:35;;;;;;;440.90;418.83;;;15.00;99.90;;;;;;5007521;28;20450;-64
2023/09/06 02:15:05;;;;;;;420.93;400.53;;;14.90;99.90;;;;;;5010929;28;20546;-64
2023/09/06 02:17:31;;;;;;;380.33;363.00;;;14.90;99.90;;;;;;5012460;28;20449;-63
2023/09/06 02:20:01;;;;;;;413.33;393.97;;;14.80;99.90;;;;;;5012946;28;20874;-64
2023/09/06 02:22:28;;;;;;;420.23;401.63;;;14.70;99.90;;;;;;5000371;28;20457;-64
2023/09/06 02:24:55;;;;;;;469.57;446.93;;;14.60;99.90;;;;;;4988912;28;20540;-64
2023/09/06 02:27:21;;;;;;;492.90;467.20;;;14.50;99.90;;;;;;5011806;28;20455;-64
2023/09/06 02:29:52;;;;;;;491.70;465.57;;;14.50;99.90;;;;;;5012530;28;20980;-64
2023/09/06 02:32:20;;;;;;;504.23;476.80;;;14.40;99.90;;;;;;4997996;28;20458;-64
2023/09/06 02:34:47;;;;;;;505.23;477.53;;;14.40;99.90;;;;;;5006241;28;20457;-64
2023/09/06 02:37:14;;;;;;;511.27;483.57;;;14.40;99.90;;;;;;5011985;28;20454;-64
2023/09/06 02:39:40;;;;;;;508.73;481.33;;;14.30;99.90;;;;;;5012277;28;20536;-64
2023/09/06 02:42:07;;;;;;;495.57;468.60;;;14.40;99.90;;;;;;5000230;28;20450;-64
2023/09/06 02:44:34;;;;;;;486.53;460.63;;;14.30;99.90;;;;;;4993220;28;20545;-64
2023/09/06 02:47:03;;;;;;;467.80;442.57;;;14.30;99.90;;;;;;4992868;28;21005;-64
2023/09/06 02:49:32;;;;;;;473.10;447.43;;;14.30;99.90;;;;;;4992918;28;20461;-64
2023/09/06 02:51:58;;;;;;;511.10;483.10;;;14.20;99.90;;;;;;4992978;28;20875;-64
2023/09/06 02:54:26;;;;;;;620.83;584.50;;;14.20;99.90;;;;;;4992711;28;20568;-64
2023/09/06 02:56:56;;;;;;;610.70;574.80;;;14.10;99.90;;;;;;5005695;28;20541;-64
2023/09/06 02:59:24;;;;;;;592.10;557.90;;;14.00;99.90;;;;;;5010676;28;20464;-64
2023/09/06 03:01:53;;;;;;;585.40;549.80;;;13.90;99.90;;;;;;5007879;28;20842;-64
2023/09/06 03:04:19;;;;;;;668.13;626.70;;;13.80;99.90;;;;;;5011691;28;20462;-64
2023/09/06 03:06:47;;;;;;;697.53;652.07;;;13.80;99.90;;;;;;5010329;28;20457;-64
2023/09/06 03:09:14;;;;;;;740.87;691.97;;;13.70;99.90;;;;;;5012022;28;20810;-64
2023/09/06 03:11:41;;;;;;;746.13;697.47;;;13.80;99.90;;;;;;5006530;28;20840;-64
2023/09/06 03:14:08;;;;;;;740.30;695.20;;;13.70;99.90;;;;;;4992914;28;20851;-64
2023/09/06 03:16:39;;;;;;;743.27;698.10;;;13.70;99.90;;;;;;4991990;28;21000;-64
2023/09/06 03:19:09;;;;;;;706.37;665.30;;;13.70;99.90;;;;;;4973096;28;20494;-64
2023/09/06 03:21:37;;;;;;;697.07;655.37;;;13.70;99.90;;;;;;4972771;28;20482;-64
2023/09/06 03:24:11;;;;;;;743.30;697.40;;;13.70;99.90;;;;;;4973015;28;20537;-64
2023/09/06 03:26:39;;;;;;;683.30;644.43;;;13.70;99.90;;;;;;4972674;28;20461;-64
2023/09/06 03:29:10;;;;;;;597.47;565.97;;;13.60;99.90;;;;;;4975382;28;20458;-64
2023/09/06 03:31:42;;;;;;;576.20;546.27;;;13.50;99.90;;;;;;5035060;23;20924;-64
2023/09/06 03:34:13;;;;;;;588.93;558.47;;;13.40;99.90;;;;;;5165164;22;20852;-64
2023/09/06 03:36:41;;;;;;;615.00;582.40;;;13.30;99.90;;;;;;5019038;28;20460;-64
2023/09/06 03:39:13;;;;;;;640.70;605.97;;;13.30;99.90;;;;;;5031981;28;20453;-64
2023/09/06 03:41:41;;;;;;;659.33;621.57;;;13.30;99.90;;;;;;5022343;28;20512;-64
2023/09/06 03:44:08;;;;;;;695.03;654.90;;;13.30;99.90;;;;;;5012060;28;20453;-64
2023/09/06 03:46:35;;;;;;;738.40;694.30;;;13.30;99.90;;;;;;5027705;28;20457;-64
2023/09/06 03:49:05;;;;;;;727.37;683.93;;;13.30;99.90;;;;;;5012066;28;20460;-64
2023/09/06 03:51:32;;;;;;;718.53;675.47;;;13.30;99.90;;;;;;5012014;28;20458;-63
2023/09/06 03:54:00;;;;;;;726.80;682.83;;;13.30;99.90;;;;;;5022865;28;20480;-63
2023/09/06 03:56:28;;;;;;;800.57;750.43;;;13.30;99.90;;;;;;5025018;28;21003;-63
2023/09/06 03:58:55;;;;;;;791.70;740.30;;;13.30;99.90;;;;;;5017578;28;20460;-63
2023/09/06 04:01:25;;;;;;;794.87;741.10;;;13.40;99.90;;;;;;5011956;28;20481;-63
2023/09/06 04:03:52;;;;;;;889.07;829.60;;;13.40;99.90;;;;;;5011839;28;21011;-63
2023/09/06 04:06:20;;;;;;;910.47;848.53;;;13.60;99.90;;;;;;5023185;28;20509;-63
2023/09/06 04:08:48;;;;;;;919.50;856.83;;;13.60;99.90;;;;;;5012608;28;20966;-63
2023/09/06 04:11:16;;;;;;;916.10;852.80;;;13.70;99.90;;;;;;5011873;28;20453;-63
2023/09/06 04:13:44;;;;;;;906.77;844.80;;;13.80;99.90;;;;;;5011303;28;21023;-63
2023/09/06 04:16:11;;;;;;;899.03;838.80;;;13.80;99.90;;;;;;5012543;28;20504;-63
2023/09/06 04:18:38;;;;;;;921.73;861.40;;;13.80;99.90;;;;;;5011834;28;20449;-63
2023/09/06 04:21:08;;;;;;;913.73;853.00;;;13.80;99.90;;;;;;5011703;28;20473;-62
2023/09/06 04:23:36;;;;;;;914.70;854.90;;;13.90;99.90;;;;;;5019599;28;20449;-63
2023/09/06 04:26:04;;;;;;;922.77;862.50;;;13.90;99.90;;;;;;5011060;28;20526;-63
2023/09/06 04:28:31;;;;;;;911.17;851.17;;;14.00;99.90;;;;;;5014821;28;20536;-63
2023/09/06 04:31:00;;;;;;;903.47;844.53;;;14.10;99.90;;;;;;5031023;28;20446;-63
2023/09/06 04:33:27;;;;;;;901.53;842.53;;;14.20;99.90;;;;;;5030720;28;20539;-63
2023/09/06 04:35:54;;;;;;;887.33;828.37;;;14.30;99.90;;;;;;5030589;28;20474;-63
2023/09/06 04:38:23;;;;;;;863.67;807.80;;;14.50;99.90;;;;;;5013755;28;20481;-63
2023/09/06 04:40:51;;;;;;;808.03;756.60;;;14.70;99.90;;;;;;5012297;28;20477;-63
2023/09/06 04:43:19;;;;;;;783.07;734.93;;;14.70;99.90;;;;;;5030427;28;20955;-63
2023/09/06 04:45:47;;;;;;;742.43;698.43;;;14.80;99.90;;;;;;5012246;28;20456;-63
2023/09/06 04:48:16;;;;;;;702.20;662.67;;;14.90;99.90;;;;;;5018691;28;20457;-63
2023/09/06 04:50:44;;;;;;;687.00;649.43;;;15.00;99.90;;;;;;5015576;28;20446;-63
2023/09/06 04:53:13;;;;;;;681.63;644.57;;;15.00;99.90;;;;;;5015455;28;20948;-63
2023/09/06 04:55:40;;;;;;;642.07;608.13;;;15.00;99.90;;;;;;5031006;28;20497;-63
2023/09/06 04:58:08;;;;;;;637.90;604.63;;;15.10;99.90;;;;;;5031181;28;20448;-67
2023/09/06 05:00:38;;;;;;;556.33;528.00;;;15.20;99.90;;;;;;5031054;28;20477;-67
2023/09/06 05:03:08;;;;;;;500.37;475.97;;;15.30;99.90;;;;;;5030773;28;20547;-66
2023/09/06 05:05:37;;;;;;;424.40;404.40;;;15.40;99.90;;;;;;5016837;28;20537;-66
2023/09/06 05:08:04;;;;;;;388.70;370.90;;;15.50;99.90;;;;;;5011412;28;20878;-67
2023/09/06 05:10:31;;;;;;;353.60;337.80;;;15.60;99.90;;;;;;5011625;28;20874;-66
2023/09/06 05:12:58;;;;;;;312.40;299.10;;;15.60;99.90;;;;;;5011421;28;21010;-66
2023/09/06 05:15:25;;;;;;;302.13;289.60;;;15.60;99.90;;;;;;5011096;28;20458;-67
2023/09/06 05:17:53;;;;;;;302.63;289.73;;;15.70;99.90;;;;;;5011716;28;20451;-67
2023/09/06 05:20:33;;;;;;;291.97;280.13;;;15.70;99.90;;;;;;5011389;28;20477;-67
2023/09/06 05:23:03;;;;;;;304.20;291.90;;;15.70;99.90;;;;;;5031324;28;20520;-66
2023/09/06 05:25:31;;;;;;;296.50;284.03;;;15.70;99.90;;;;;;5033005;28;20456;-67
2023/09/06 05:28:00;;;;;;;287.03;275.73;;;15.70;99.90;;;;;;5035077;28;21070;-66
2023/09/06 05:30:27;;;;;;;288.23;276.83;;;15.80;99.90;;;;;;5028579;28;20539;-64
2023/09/06 05:32:55;;;;;;;299.20;287.40;;;15.70;99.90;;;;;;5014988;28;20866;-64
2023/09/06 05:35:22;;;;;;;297.03;285.67;;;15.80;99.90;;;;;;5019044;28;20508;-66
2023/09/06 05:37:49;;;;;;;305.50;293.60;;;15.80;99.90;;;;;;5034663;28;20461;-66
2023/09/06 05:40:22;;;;;;;296.00;284.50;;;15.90;99.90;;;;;;5034773;28;20456;-66
2023/09/06 05:42:49;;;;;;;269.73;259.00;;;16.00;99.90;;;;;;5033987;28;20482;-66
2023/09/06 05:45:16;;;;;;;260.93;250.70;;;16.00;99.90;;;;;;5033728;28;20543;-66
2023/09/06 05:47:43;;;;;;;247.40;238.30;;;16.10;99.90;;;;;;5033982;28;20459;-66
2023/09/06 05:50:10;;;;;;;248.27;238.93;;;16.10;99.90;;;;;;5014325;28;20482;-66
2023/09/06 05:52:37;;;;;;;237.30;228.73;;;16.20;99.90;;;;;;5018616;28;20542;-66
2023/09/06 05:55:04;;;;;;;242.30;233.23;;;16.30;99.90;;;;;;5024423;28;20450;-66
2023/09/06 05:57:33;;;;;;;251.20;242.17;;;16.30;99.90;;;;;;5033496;28;20463;-67
2023/09/06 06:00:00;;;;;;;243.13;234.30;;;16.40;99.90;;;;;;5033605;28;20467;-66
2023/09/06 06:02:27;;;;;;;223.63;215.50;;;16.50;99.90;;;;;;5033620;28;20544;-66
2023/09/06 06:04:55;;;;;;;221.03;213.17;;;16.50;99.90;;;;;;5033676;28;20560;-66
2023/09/06 06:07:23;;;;;;;217.83;210.17;;;16.60;99.90;;;;;;5031621;28;20450;-66
2023/09/06 06:09:49;;;;;;;186.40;179.80;;;16.70;99.90;;;;;;5022730;28;20452;-66
2023/09/06 06:12:22;;;;;;;164.43;158.37;;;16.80;99.90;;;;;;5013517;28;20456;-66
2023/09/06 06:14:51;;;;;;;171.60;165.40;;;16.90;99.90;;;;;;5013992;28;20453;-66
2023/09/06 06:17:18;;;;;;;154.80;149.40;;;17.00;99.90;;;;;;5013545;28;20453;-66
2023/09/06 06:19:45;;;;;;;150.90;145.73;;;17.00;99.90;;;;;;5013428;28;20544;-66
2023/09/06 06:22:12;;;;;;;127.67;123.27;;;17.10;99.90;;;;;;5013447;28;20807;-66
2023/09/06 06:24:39;;;;;;;130.30;125.77;;;17.10;99.90;;;;;;5013425;28;20886;-65
2023/09/06 06:27:06;;;;;;;110.93;106.90;;;17.20;99.90;;;;;;5011577;28;20452;-65
2023/09/06 06:29:33;;;;;;;112.23;108.00;;;17.30;99.90;;;;;;5013904;28;20499;-65
2023/09/06 06:32:01;;;;;;;94.87;91.27;;;17.30;99.90;;;;;;5013474;28;20449;-65
2023/09/06 06:34:28;;;;;;;114.70;110.57;;;17.40;99.90;;;;;;5013126;28;20465;-67
2023/09/06 06:36:55;;;;;;;102.63;98.83;;;17.50;99.90;;;;;;5019243;28;20448;-66
2023/09/06 06:39:22;;;;;;;61.30;58.50;;;17.50;99.90;;;;;;5033347;28;20484;-66
2023/09/06 06:41:49;;;;;;;66.23;63.43;;;17.60;99.90;;;;;;5031291;28;20971;-66
2023/09/06 06:44:16;;;;;;;56.77;54.10;;;17.70;99.90;;;;;;5032789;28;20948;-66
2023/09/06 06:46:43;;;;;;;34.37;32.67;;;17.80;99.90;;;;;;5032705;28;20457;-65
2023/09/06 06:49:11;;;;;;;35.07;33.30;;;17.90;99.90;;;;;;5032904;28;20854;-65
2023/09/06 06:51:40;;;;;;;38.03;35.50;;;18.00;99.90;;;;;;5032805;28;20452;-65
2023/09/06 06:54:08;;;;;;;50.17;47.80;;;18.10;99.90;;;;;;5031445;28;20544;-65
2023/09/06 06:56:35;;;;;;;30.00;28.20;;;18.10;99.90;;;;;;5032566;28;20455;-66
2023/09/06 06:59:02;;;;;;;23.27;21.77;;;18.20;99.90;;;;;;5032570;28;20448;-65
2023/09/06 07:01:30;;;;;;;22.30;20.90;;;18.30;99.90;;;;;;5032542;28;20483;-66
2023/09/06 07:03:57;;;;;;;23.80;22.40;;;18.40;99.90;;;;;;5030909;28;20627;-66
2023/09/06 07:06:26;;;;;;;15.07;13.53;;;18.50;99.90;;;;;;5032051;28;20533;-65
2023/09/06 07:08:53;;;;;;;14.37;12.97;;;18.60;99.90;;;;;;5032772;28;20538;-65
2023/09/06 07:11:21;;;;;;;12.07;11.07;;;18.80;99.90;;;;;;5032195;28;20530;-66
2023/09/06 07:13:49;;;;;;;9.40;8.23;;;18.90;99.90;;;;;;5029255;28;20532;-65
2023/09/06 07:16:17;;;;;;;8.73;7.10;;;19.00;99.90;;;;;;5028755;28;20455;-66
2023/09/06 07:18:45;;;;;;;9.30;6.70;;;19.10;99.90;;;;;;5031625;28;20480;-65
2023/09/06 07:21:12;;;;;;;9.70;5.80;;;19.20;99.90;;;;;;5031226;28;20491;-65
2023/09/06 07:23:40;;;;;;;12.50;6.70;;;19.30;99.90;;;;;;5031596;28;20537;-66
2023/09/06 07:26:08;;;;;;;7.57;5.27;;;19.40;99.90;;;;;;5030852;28;20455;-66
2023/09/06 07:28:40;;;;;;;8.40;5.17;;;19.40;99.90;;;;;;5032105;28;20533;-65
2023/09/06 07:31:07;;;;;;;8.93;4.93;;;19.50;99.90;;;;;;5032194;28;20452;-66
2023/09/06 07:33:34;;;;;;;9.10;5.30;;;19.60;99.90;;;;;;5013581;28;20525;-66
2023/09/06 07:36:00;;;;;;;9.13;4.10;;;19.80;99.90;;;;;;5012109;28;20548;-65
2023/09/06 07:38:27;;;;;;;6.27;4.27;;;19.80;99.90;;;;;;5024373;28;20455;-67
2023/09/06 07:40:59;;;;;;;7.25;4.53;;;19.90;99.90;;;;;;5030332;28;20540;-63
2023/09/06 07:43:28;;;;;;;7.78;4.65;;;20.00;99.90;;;;;;5020391;28;20537;-63
2023/09/06 07:45:56;;;;;;;9.70;4.20;;;20.10;99.90;;;;;;5031571;28;20650;-63
2023/09/06 07:48:23;;;;;;;13.73;4.17;;;20.20;99.90;;;;;;5031456;28;20573;-63
2023/09/06 07:50:51;;;;;;;8.17;4.40;;;20.40;98.60;;;;;;5033611;28;20463;-63
2023/09/06 07:53:17;;;;;;;10.47;4.20;;;20.50;97.20;;;;;;5031997;28;20451;-63
2023/09/06 07:55:46;;;;;;;6.67;3.90;;;20.70;97.40;;;;;;5031719;28;20545;-63
2023/09/06 07:58:15;;;;;;;9.97;4.00;;;20.90;95.50;;;;;;5031944;28;20460;-63
2023/09/06 08:00:42;;;;;;;10.80;3.73;;;21.30;95.60;;;;;;5031669;28;20451;-62
2023/09/06 08:03:09;;;;;;;9.00;3.83;;;21.70;94.40;;;;;;5031668;28;20484;-63
2023/09/06 08:05:36;;;;;;;6.83;3.60;;;22.10;92.50;;;;;;5031439;28;20934;-63
2023/09/06 08:08:03;;;;;;;8.63;4.60;;;22.60;88.50;;;;;;5031915;28;20448;-63
2023/09/06 08:10:30;;;;;;;10.07;4.10;;;23.00;88.80;;;;;;5031862;28;20889;-63
2023/09/06 08:12:58;;;;;;;9.53;4.07;;;23.30;73.10;;;;;;5031598;28;20452;-63
2023/09/06 08:15:26;;;;;;;6.63;3.47;;;23.70;73.50;;;;;;5031586;28;20539;-62
2023/09/06 08:17:53;;;;;;;10.80;4.20;;;23.90;56.90;;;;;;5031583;28;20535;-63
2023/09/06 08:20:20;;;;;;;6.23;3.43;;;24.20;57.10;;;;;;5031763;28;20543;-63
2023/09/06 08:22:47;;;;;;;7.60;3.97;;;24.40;51.50;;;;;;5031539;28;20476;-62
2023/09/06 08:25:14;;;;;;;9.73;3.60;;;24.50;50.20;;;;;;5031342;28;20589;-63
2023/09/06 08:27:41;;;;;;;7.40;3.57;;;24.60;48.70;;;;;;5031211;28;20881;-63
2023/09/06 08:30:11;;;;;;;6.20;3.10;;;24.90;48.90;;;;;;5031843;28;20867;-63
2023/09/06 08:32:39;;;;;;;7.17;3.67;;;25.00;40.00;;;;;;5031445;28;20445;-63
2023/09/06 08:35:07;;;;;;;8.07;3.27;;;25.10;40.10;;;;;;5031428;28;20459;-63
2023/09/06 08:37:35;;;;;;;8.60;3.77;;;25.40;40.20;;;;;;5031254;28;20448;-63
2023/09/06 08:40:03;;;;;;;8.07;4.17;;;25.50;35.30;;;;;;5031478;28;20478;-63
2023/09/06 08:42:33;;;;;;;8.23;3.40;;;25.70;31.20;;;;;;5031140;28;20606;-64
2023/09/06 08:45:00;;;;;;;9.80;3.10;;;25.90;31.30;;;;;;5031699;28;20804;-63
2023/09/06 08:47:28;;;;;;;7.23;3.60;;;26.10;26.90;;;;;;5031131;28;20448;-62
2023/09/06 08:49:57;;;;;;;7.83;4.10;;;26.10;23.90;;;;;;5031377;28;20455;-63
2023/09/06 08:52:24;;;;;;;9.00;3.60;;;26.30;24.00;;;;;;5031306;28;20418;-63
2023/09/06 08:54:52;;;;;;;11.93;3.90;;;26.30;24.00;;;;;;5031103;28;21042;-63
2023/09/06 08:57:20;;;;;;;10.10;3.63;;;26.70;24.20;;;;;;5031228;28;20462;-63
2023/09/06 08:59:47;;;;;;;7.70;3.93;;;26.80;19.50;;;;;;5032418;28;20456;-63
2023/09/06 09:02:15;;;;;;;9.93;3.77;;;27.00;20.70;;;;;;5034822;28;20454;-63
2023/09/06 09:04:42;;;;;;;8.63;3.90;;;27.10;16.90;;;;;;5035050;28;20458;-63
2023/09/06 09:07:11;;;;;;;6.63;3.67;;;27.20;15.00;;;;;;5034717;28;20549;-63
2023/09/06 09:09:56;;;;;;;7.27;3.90;;;27.50;17.10;;;;;;5034840;28;20463;-63
2023/09/06 09:12:24;;;;;;;8.57;3.37;;;27.70;12.40;;;;;;5035295;28;20440;-63
2023/09/06 09:14:52;;;;;;;12.50;3.90;;;27.90;9.70;;;;;;5034991;28;20447;-63
2023/09/06 09:17:21;;;;;;;10.50;4.13;;;28.30;12.00;;;;;;5034453;28;20535;-62
2023/09/06 09:19:50;;;;;;;6.70;3.40;;;28.40;9.90;;;;;;5034661;28;20923;-63
2023/09/06 09:22:22;;;;;;;6.20;3.03;;;28.60;3.70;;;;;;5034750;28;20490;-63
2023/09/06 09:24:49;;;;;;;7.00;3.53;;;28.60;2.20;;;;;;5034849;28;20812;-64
2023/09/06 09:27:17;;;;;;;6.17;3.70;;;29.10;3.90;;;;;;5034407;28;21038;-63
2023/09/06 09:29:47;;;;;;;10.07;3.77;;;29.30;2.60;;;;;;5034626;28;20531;-63
2023/09/06 09:34:42;;;;;;;7.90;3.33;;;29.70;1.00;;;;;;5041966;28;20478;-65
2023/09/06 09:37:09;;;;;;;9.60;4.40;;;29.60;1.00;;;;;;5053354;28;20497;-64
2023/09/06 09:39:38;;;;;;;7.90;4.03;;;29.80;1.00;;;;;;5053441;28;20542;-64
2023/09/06 09:42:06;;;;;;;7.23;3.53;;;30.00;1.00;;;;;;5052605;28;20449;-65
2023/09/06 09:44:33;;;;;;;13.20;4.27;;;30.30;1.00;;;;;;5053184;28;20934;-64
2023/09/06 09:47:10;;;;;;;6.40;3.70;;;30.30;1.00;;;;;;5052604;28;20458;-65
2023/09/06 09:49:40;;;;;;;7.03;3.87;;;30.20;1.00;;;;;;5053083;28;20459;-68
2023/09/06 09:52:11;;;;;;;6.57;3.40;;;30.60;1.00;;;;;;5053846;28;20542;-67
2023/09/06 09:54:42;;;;;;;9.23;4.17;;;30.90;1.00;;;;;;5053522;28;20969;-67
2023/09/06 09:57:11;;;;;;;11.80;4.87;;;31.10;1.00;;;;;;5053566;28;20448;-68
2023/09/06 09:59:40;;;;;;;6.40;3.50;;;31.40;1.00;;;;;;5053817;28;20493;-67
2023/09/06 10:02:15;;;;;;;9.90;4.10;;;31.60;1.00;;;;;;5053828;28;20838;-68
2023/09/06 10:04:43;;;;;;;8.23;4.47;;;31.90;1.00;;;;;;5053994;28;20473;-68
2023/09/06 10:07:13;;;;;;;7.70;3.77;;;31.90;1.00;;;;;;5053779;28;20430;-68
2023/09/06 10:09:43;;;;;;;9.80;3.60;;;31.90;1.00;;;;;;5053512;28;20897;-68
2023/09/06 10:12:11;;;;;;;6.70;4.00;;;31.20;1.00;;;;;;5053035;28;20961;-69
2023/09/06 10:14:41;;;;;;;6.80;3.57;;;31.20;1.00;;;;;;5053388;28;20538;-67
2023/09/06 10:17:08;;;;;;;6.97;3.97;;;31.60;1.00;;;;;;5053020;28;20432;-68
2023/09/06 10:19:36;;;;;;;7.87;3.93;;;32.30;1.00;;;;;;5053394;28;20426;-67
2023/09/06 10:22:05;;;;;;;5.97;3.10;;;32.70;1.00;;;;;;5053284;28;20508;-68
2023/09/06 10:24:35;;;;;;;8.73;4.13;;;33.00;1.00;;;;;;5053197;28;20455;-68
2023/09/06 10:27:04;;;;;;;8.23;3.73;;;32.20;1.00;;;;;;5052935;28;20890;-69
2023/09/06 10:29:32;;;;;;;6.37;3.37;;;32.70;1.00;;;;;;5053154;28;20818;-68
2023/09/06 10:32:04;;;;;;;7.13;3.10;;;33.10;1.00;;;;;;5053378;28;20790;-68
2023/09/06 10:34:34;;;;;;;8.00;4.10;;;33.50;1.00;;;;;;5052887;28;20451;-68
2023/09/06 10:37:03;;;;;;;6.50;3.70;;;33.30;1.00;;;;;;5051292;28;20997;-68
2023/09/06 10:39:31;;;;;;;8.60;3.80;;;33.60;1.00;;;;;;5051986;28;20822;-65
2023/09/06 10:42:16;;;;;;;7.30;4.00;;;33.60;1.00;;;;;;5053244;28;20233;-65
2023/09/06 10:45:09;;;;;;;6.57;4.00;;;33.60;1.00;;;;;;5052592;28;20558;-65
2023/09/06 10:47:36;;;;;;;7.83;3.70;;;34.30;1.00;;;;;;5053037;28;20855;-65
2023/09/06 10:50:18;;;;;;;6.37;3.17;;;34.00;1.00;;;;;;5052907;28;20441;-65
2023/09/06 10:52:48;;;;;;;6.70;3.80;;;34.30;1.00;;;;;;5032866;28;20448;-65
2023/09/06 10:55:17;;;;;;;6.60;3.73;;;34.20;1.00;;;;;;5033001;28;20418;-66
2023/09/06 10:57:54;;;;;;;7.53;3.53;;;34.30;1.00;;;;;;5032728;28;20451;-64
2023/09/06 11:00:25;;;;;;;5.97;3.63;;;34.00;1.00;;;;;;5032849;28;20469;-63
2023/09/06 11:03:18;;;;;;;9.27;3.70;;;34.50;1.00;;;;;;5032634;28;20450;-64
2023/09/06 11:05:51;;;;;;;8.00;3.40;;;34.50;1.00;;;;;;5038679;28;20644;-63
2023/09/06 11:08:30;;;;;;;7.30;3.67;;;34.80;1.00;;;;;;5052918;28;20441;-63
2023/09/06 11:11:09;;;;;;;6.90;3.57;;;34.70;1.00;;;;;;5052649;28;20447;-63
2023/09/06 11:13:38;;;;;;;7.10;3.30;;;34.80;1.00;;;;;;5052267;28;20493;-64
2023/09/06 11:16:12;;;;;;;6.10;3.13;;;34.90;1.00;;;;;;5051423;28;20480;-63
2023/09/06 11:18:47;;;;;;;7.50;4.07;;;34.80;1.00;;;;;;5052574;28;20410;-63
2023/09/06 11:21:18;;;;;;;7.47;4.43;;;35.20;1.00;;;;;;5052061;28;20442;-63
2023/09/06 11:23:46;;;;;;;6.20;3.70;;;35.30;1.00;;;;;;5051451;28;20450;-64
2023/09/06 11:26:13;;;;;;;8.13;3.70;;;35.20;1.00;;;;;;5051993;28;20505;-64
2023/09/06 11:31:23;;;;;;;5.80;3.30;;;35.70;1.00;;;;;;4831824;26;20550;-69
2023/09/06 11:33:55;;;;;;;6.27;3.63;;;36.00;1.00;;;;;;5066306;28;20780;-69
2023/09/06 11:36:24;;;;;;;6.23;3.57;;;36.20;1.00;;;;;;5052158;28;20425;-68
2023/09/06 11:38:53;;;;;;;6.10;3.37;;;36.10;1.00;;;;;;5051274;28;20429;-69
2023/09/06 11:41:20;;;;;;;6.20;3.47;;;36.60;1.00;;;;;;5051482;28;20447;-64
2023/09/06 11:46:37;;;;;;;6.67;3.90;;;36.40;1.00;;;;;;4953326;28;20449;-62
2023/09/06 11:49:04;;;;;;;7.40;3.80;;;36.60;1.00;;;;;;5011036;28;20946;-62
2023/09/06 11:51:32;;;;;;;6.87;4.33;;;36.50;1.00;;;;;;5011570;28;20432;-62
2023/09/06 11:54:00;;;;;;;7.23;4.27;;;36.60;1.00;;;;;;5011518;28;20455;-62
2023/09/06 11:56:30;;;;;;;9.53;4.10;;;36.90;1.00;;;;;;5010549;28;20431;-61
2023/09/06 11:58:59;;;;;;;6.47;3.33;;;37.50;1.00;;;;;;5010933;28;20452;-62
2023/09/06 12:01:27;;;;;;;6.97;3.67;;;37.30;1.00;;;;;;5011567;28;20481;-61
2023/09/06 12:03:58;;;;;;;7.70;3.80;;;37.40;1.00;;;;;;5011447;28;20858;-61
2023/09/06 12:06:27;;;;;;;7.13;3.67;;;36.40;1.00;;;;;;5011197;28;20424;-63
2023/09/06 12:08:54;;;;;;;6.60;3.63;;;36.60;1.00;;;;;;5010744;28;20424;-63
2023/09/06 12:11:21;;;;;;;6.37;3.80;;;36.70;1.00;;;;;;5011540;28;20431;-62
2023/09/06 12:13:48;;;;;;;8.47;4.00;;;36.80;1.00;;;;;;5010901;28;20487;-63
2023/09/06 12:16:16;;;;;;;9.70;4.03;;;37.20;1.00;;;;;;5010978;28;20453;-64
2023/09/06 12:18:43;;;;;;;6.60;3.83;;;36.30;1.00;;;;;;5010721;28;20477;-63
2023/09/06 12:21:11;;;;;;;6.90;3.70;;;36.70;1.00;;;;;;5011111;28;20907;-63
2023/09/06 12:23:38;;;;;;;7.00;4.10;;;36.00;1.00;;;;;;5011542;28;20511;-64
2023/09/06 12:26:05;;;;;;;6.67;3.73;;;36.10;1.00;;;;;;5011604;28;20696;-63
2023/09/06 12:28:32;;;;;;;9.43;4.23;;;36.30;1.00;;;;;;5010187;28;20457;-62
2023/09/06 12:31:02;;;;;;;7.30;4.10;;;36.20;1.00;;;;;;5010988;28;20680;-63
2023/09/06 12:33:29;;;;;;;7.10;4.40;;;36.80;1.00;;;;;;5011867;28;20480;-64
2023/09/06 12:35:59;;;;;;;7.00;3.50;;;37.30;1.00;;;;;;5015038;28;20430;-63
2023/09/06 12:38:29;;;;;;;9.53;3.67;;;37.40;1.00;;;;;;5014862;28;20796;-64
2023/09/06 12:40:56;;;;;;;6.43;3.23;;;37.50;1.00;;;;;;5015256;28;20420;-63
2023/09/06 12:43:24;;;;;;;7.27;4.47;;;37.60;1.00;;;;;;5015072;28;20990;-63